Latest Weather Observations for Gladstone

IDQ60801

Issued at 3:02 pm EST Monday 30 March 2020 (issued every 10 minutes, with the page automatically refreshed every 10 minutes)

About weather observations | Map of weather stations | Latest weather observations for QLD | Other Formats
Station Details ID: 039123 Name: GLADSTONE RADAR Lat: -23.86 Lon: 151.26 Height: 74.5 m
Data from the previous 72 hours. | See also: Recent months at Gladstone
Date/Time
EST
Temp
°C
App
Temp
°C
Dew
Point
°C
Rel
Hum
%
Delta-T
°C
Wind Press
QNH
hPa
Press
MSL
hPa
Rain since
9am
mm
Dir  Spd
km/h
Gust
km/h
Spd
kts
Gust
kts
30/03:00pm - - - - - ENE 20 28 11 15 1014.1 1013.7 0.0
30/02:30pm - - - - - ENE 22 28 12 15 1014.1 1013.7 0.0
30/02:00pm - - - - - ENE 20 30 11 16 1014.3 1013.9 0.0
30/01:30pm - - - - - ENE 19 28 10 15 1014.5 1014.1 0.0
30/01:00pm - - - - - ENE 20 28 11 15 1014.8 1014.4 0.0
30/12:30pm - - - - - ENE 20 28 11 15 1015.0 1014.6 0.0
30/12:00pm - - - - - ENE 20 30 11 16 1015.4 1015.0 0.0
30/11:30am - - - - - E 22 32 12 17 1015.9 1015.5 0.0
30/11:00am - - - - - E 22 30 12 16 1016.2 1015.8 0.0
30/10:30am - - - - - E 20 28 11 15 1016.3 1015.9 0.0
30/10:00am - - - - - ESE 19 28 10 15 1016.6 1016.2 0.0
30/09:30am - - - - - ESE 19 30 10 16 1016.4 1016.0 0.0
30/09:00am - - - - - ESE 17 28 9 15 1016.4 1016.0 0.0
30/08:30am - - - - - SE 15 24 8 13 1016.5 1016.1 0.0
30/08:00am - - - - - SE 13 20 7 11 1016.5 1016.1 0.0
30/07:30am - - - - - SE 11 19 6 10 1016.2 1015.8 0.0
30/07:00am - - - - - SE 13 22 7 12 1015.8 1015.4 0.0
30/06:30am - - - - - SSE 13 20 7 11 1015.6 1015.2 0.0
30/06:00am - - - - - SE 15 20 8 11 1015.2 1014.8 0.0
30/05:30am - - - - - SE 15 24 8 13 1015.0 1014.6 0.0
30/05:00am - - - - - SSE 15 24 8 13 1015.0 1014.6 0.0
30/04:30am - - - - - SE 13 20 7 11 1015.0 1014.6 0.0
30/04:00am - - - - - SSE 13 24 7 13 1014.9 1014.5 0.0
30/03:30am - - - - - SSE 13 19 7 10 1015.0 1014.6 0.0
30/03:00am - - - - - SSE 13 22 7 12 1015.4 1015.0 0.0
30/02:30am - - - - - SSE 15 22 8 12 1015.8 1015.4 0.0
30/02:00am - - - - - SSE 13 20 7 11 1015.9 1015.5 0.0
30/01:30am - - - - - SE 15 22 8 12 1015.9 1015.5 0.0
30/01:00am - - - - - SE 13 19 7 10 1016.5 1016.1 0.0
30/12:30am - - - - - SE 17 20 9 11 1016.7 1016.3 0.0
30/12:00am - - - - - SE 13 19 7 10 1016.8 1016.4 0.0
 
Date/Time
EST
Temp
°C
App
Temp
°C
Dew
Point
°C
Rel
Hum
%
Delta-T
°C
Wind Press
QNH
hPa
Press
MSL
hPa
Rain since
9am
mm
Dir  Spd
km/h
Gust
km/h
Spd
kts
Gust
kts
29/11:30pm - - - - - SSE 15 19 8 10 1017.0 1016.6 0.0
29/11:00pm - - - - - SSE 13 19 7 10 1017.1 1016.7 0.0
29/10:30pm - - - - - SE 13 19 7 10 1017.2 1016.8 0.0
29/10:00pm - - - - - SE 11 22 6 12 1017.3 1016.9 0.0
29/09:30pm - - - - - SE 15 22 8 12 1017.1 1016.7 0.0
29/09:00pm - - - - - ESE 15 22 8 12 1016.8 1016.4 0.0
29/08:30pm - - - - - E 15 22 8 12 1016.5 1016.1 0.0
29/08:00pm - - - - - E 22 32 12 17 1016.5 1016.1 0.0
29/07:30pm - - - - - E 24 32 13 17 1015.9 1015.5 0.0
29/07:00pm - - - - - E 22 30 12 16 1015.7 1015.3 0.0
29/06:30pm - - - - - E 19 26 10 14 1015.6 1015.2 0.0
29/06:00pm - - - - - E 24 32 13 17 1015.4 1015.0 0.0
29/05:30pm - - - - - E 24 33 13 18 1015.2 1014.8 0.0
29/05:00pm - - - - - E 24 33 13 18 1014.9 1014.5 0.0
29/04:30pm - - - - - ENE 24 35 13 19 1014.7 1014.3 0.0
29/04:00pm - - - - - ENE 24 37 13 20 1014.6 1014.2 0.0
29/03:30pm - - - - - ENE 26 37 14 20 1014.8 1014.4 0.0
29/03:00pm - - - - - ENE 24 35 13 19 1014.9 1014.5 0.0
29/02:30pm - - - - - ENE 22 32 12 17 1015.2 1014.8 0.0
29/02:00pm - - - - - ENE 24 35 13 19 1015.2 1014.8 0.0
29/01:30pm - - - - - ENE 22 33 12 18 1015.3 1014.9 0.0
29/01:00pm - - - - - ENE 24 35 13 19 1015.4 1015.0 0.0
29/12:30pm - - - - - ENE 26 37 14 20 1015.5 1015.1 0.0
29/12:00pm - - - - - E 24 33 13 18 1016.1 1015.7 0.0
29/11:30am - - - - - E 26 33 14 18 1016.4 1016.0 0.0
29/11:00am - - - - - E 20 35 11 19 1016.7 1016.3 0.0
29/10:30am - - - - - ESE 22 35 12 19 1016.8 1016.4 0.0
29/10:00am - - - - - ESE 19 32 10 17 1017.0 1016.6 0.0
29/09:30am - - - - - ESE 19 30 10 16 1017.2 1016.8 0.0
29/09:00am - - - - - ESE 15 22 8 12 1017.1 1016.7 0.0
29/08:30am - - - - - SE 17 26 9 14 1017.1 1016.7 0.0
29/08:00am - - - - - SE 15 26 8 14 1016.9 1016.5 0.0
29/07:30am - - - - - SE 17 28 9 15 1016.5 1016.1 0.0
29/07:00am - - - - - SE 17 24 9 13 1016.1 1015.7 0.0
29/06:30am - - - - - SE 17 24 9 13 1015.9 1015.5 0.0
29/06:00am - - - - - SE 17 26 9 14 1015.6 1015.2 0.0
29/05:30am - - - - - SSE 19 28 10 15 1015.3 1014.9 0.0
29/05:00am - - - - - SSE 17 24 9 13 1015.2 1014.8 0.0
29/04:30am - - - - - SE 17 24 9 13 1015.1 1014.7 0.0
29/04:00am - - - - - SE 19 30 10 16 1014.6 1014.2 0.0
29/03:30am - - - - - SE 17 28 9 15 1014.6 1014.2 0.0
29/03:00am - - - - - SE 15 22 8 12 1015.0 1014.6 0.0
29/02:30am - - - - - SE 17 26 9 14 1015.3 1014.9 0.0
29/02:00am - - - - - SE 17 28 9 15 1015.8 1015.4 0.0
29/01:30am - - - - - SSE 13 20 7 11 1016.2 1015.8 0.0
29/01:00am - - - - - SSE 17 26 9 14 1016.2 1015.8 0.0
29/12:30am - - - - - SSE 17 26 9 14 1016.3 1015.9 0.0
29/12:00am - - - - - SSE 15 22 8 12 1016.5 1016.1 0.0
 
Date/Time
EST
Temp
°C
App
Temp
°C
Dew
Point
°C
Rel
Hum
%
Delta-T
°C
Wind Press
QNH
hPa
Press
MSL
hPa
Rain since
9am
mm
Dir  Spd
km/h
Gust
km/h
Spd
kts
Gust
kts
28/11:30pm - - - - - SSE 15 28 8 15 1016.9 1016.5 0.0
28/11:00pm - - - - - SSE 15 22 8 12 1017.1 1016.7 0.0
28/10:30pm - - - - - SSE 17 22 9 12 1017.1 1016.7 0.0
28/10:00pm - - - - - SE 17 26 9 14 1017.3 1016.9 0.0
28/09:30pm - - - - - SE 15 24 8 13 1017.3 1016.9 0.0
28/09:00pm - - - - - SE 17 26 9 14 1017.1 1016.7 0.0
28/08:30pm - - - - - ESE 19 30 10 16 1016.8 1016.4 0.0
28/08:00pm - - - - - SE 19 32 10 17 1016.6 1016.2 0.0
28/07:30pm - - - - - ESE 22 33 12 18 1016.1 1015.7 0.0
28/07:00pm - - - - - E 22 35 12 19 1015.7 1015.3 0.0
28/06:30pm - - - - - ESE 22 32 12 17 1015.8 1015.4 0.0
28/06:00pm - - - - - ESE 20 32 11 17 1015.3 1014.9 0.0
28/05:30pm - - - - - E 30 41 16 22 1015.5 1015.1 0.0
28/05:00pm - - - - - E 32 46 17 25 1015.0 1014.6 0.0
28/04:30pm - - - - - E 39 50 21 27 1014.6 1014.2 0.0
28/04:19pm - - - - - E 32 57 17 31 1014.7 1014.3 0.0
28/04:00pm - - - - - E 30 44 16 24 1014.6 1014.2 0.0
28/03:30pm - - - - - E 39 54 21 29 1014.6 1014.2 0.0
28/03:02pm - - - - - E 32 52 17 28 1014.7 1014.3 0.0
28/03:00pm - - - - - E 32 46 17 25 1014.8 1014.4 0.0
28/02:30pm - - - - - E 33 43 18 23 1014.9 1014.5 0.0
28/02:12pm - - - - - E 28 46 15 25 1015.0 1014.6 0.0
28/02:00pm - - - - - E 28 43 15 23 1015.1 1014.7 0.0
28/01:30pm - - - - - ESE 30 44 16 24 1015.4 1015.0 0.0
28/01:10pm - - - - - ESE 30 48 16 26 1015.5 1015.1 0.0
28/01:00pm - - - - - ESE 32 43 17 23 1015.6 1015.2 0.0
28/12:30pm - - - - - E 26 35 14 19 1016.1 1015.7 0.0
28/12:00pm - - - - - ESE 28 39 15 21 1016.6 1016.2 0.0
28/11:30am - - - - - ESE 32 41 17 22 1016.9 1016.5 0.0
28/11:00am - - - - - ESE 24 41 13 22 1017.3 1016.9 0.0
28/10:30am - - - - - ESE 24 37 13 20 1017.5 1017.1 0.0
28/10:00am - - - - - ESE 24 39 13 21 1017.6 1017.2 0.0
28/09:30am - - - - - ESE 22 33 12 18 1017.7 1017.3 0.0
28/09:00am - - - - - SE 20 35 11 19 1017.6 1017.2 0.0
28/08:30am - - - - - SE 24 37 13 20 1017.5 1017.1 0.0
28/08:00am - - - - - SE 20 33 11 18 1017.1 1016.7 0.0
28/07:30am - - - - - SE 17 28 9 15 1017.0 1016.6 0.0
28/07:00am - - - - - SE 19 28 10 15 1016.7 1016.3 0.0
28/06:30am - - - - - SE 17 28 9 15 1016.3 1015.9 0.0
28/06:00am - - - - - SSE 17 30 9 16 1016.2 1015.8 0.0
28/05:30am - - - - - SSE 17 30 9 16 1016.0 1015.6 0.0
28/05:00am - - - - - SSE 17 30 9 16 1015.9 1015.5 0.0
28/04:30am - - - - - SSE 17 32 9 17 1015.8 1015.4 0.0
28/04:00am - - - - - SE 19 35 10 19 1015.7 1015.3 0.0
28/03:30am - - - - - SE 20 30 11 16 1015.8 1015.4 0.0
28/03:00am - - - - - SE 19 30 10 16 1016.1 1015.7 0.0
28/02:30am - - - - - SE 17 28 9 15 1016.2 1015.8 0.0
28/02:00am - - - - - SE 19 30 10 16 1016.4 1016.0 0.0
28/01:30am - - - - - SSE 19 30 10 16 1016.8 1016.4 0.0
28/01:00am - - - - - SSE 17 28 9 15 1017.1 1016.7 0.0
28/12:30am - - - - - SE 15 24 8 13 1017.4 1017.0 0.0
28/12:00am - - - - - SE 19 26 10 14 1017.7 1017.3 0.0
 
Date/Time
EST
Temp
°C
App
Temp
°C
Dew
Point
°C
Rel
Hum
%
Delta-T
°C
Wind Press
QNH
hPa
Press
MSL
hPa
Rain since
9am
mm
Dir  Spd
km/h
Gust
km/h
Spd
kts
Gust
kts
27/11:30pm - - - - - SE 19 26 10 14 1018.0 1017.6 0.0
27/11:00pm - - - - - SSE 15 22 8 12 1018.1 1017.7 0.0
27/10:30pm - - - - - SE 15 26 8 14 1018.3 1017.9 0.0
27/10:00pm - - - - - SE 20 33 11 18 1018.2 1017.8 0.0
27/09:30pm - - - - - ESE 22 32 12 17 1018.2 1017.8 0.0
27/09:00pm - - - - - ESE 20 33 11 18 1018.1 1017.7 0.0
27/08:30pm - - - - - ESE 28 44 15 24 1017.9 1017.5 0.0
27/08:00pm - - - - - ESE 28 43 15 23 1017.6 1017.2 0.0
27/07:30pm - - - - - ESE 30 41 16 22 1017.3 1016.9 0.0
27/07:00pm - - - - - E 28 39 15 21 1017.0 1016.6 0.0
27/06:30pm - - - - - E 32 43 17 23 1016.5 1016.1 0.0
27/06:00pm - - - - - E 33 46 18 25 1016.2 1015.8 0.0
27/05:30pm - - - - - E 32 46 17 25 1015.9 1015.5 0.0
27/05:00pm - - - - - E 33 46 18 25 1015.8 1015.4 0.0
27/04:30pm - - - - - E 30 41 16 22 1015.7 1015.3 0.0
27/04:00pm - - - - - E 33 44 18 24 1015.6 1015.2 0.0
27/03:30pm - - - - - E 35 48 19 26 1015.6 1015.2 0.0

Other formats

Comma delimited format used in spreadsheet applications
http://www.bom.gov.au/fwo/IDQ60801/IDQ60801.94380.axf

JavaScript Object Notation format (JSON) in row-major order
http://www.bom.gov.au/fwo/IDQ60801/IDQ60801.94380.json

Data quality

Most of these data are generated automatically and are frequently updated. Quality checks on data are not normally performed. It is possible for incorrect values to appear. Refer to information at About Latest Weather Observations and please check the disclaimer before using these data.